sensor_id;sensor_type;location;lat;lon;timestamp;P1;durP1;ratioP1;P2;durP2;ratioP2
44626;SDS011;30333;52.192;8.834;2023-04-06T00:00:33;0.00;;;0.00;;
44626;SDS011;30333;52.192;8.834;2023-04-06T00:02:59;0.10;;;0.10;;
44626;SDS011;30333;52.192;8.834;2023-04-06T00:05:25;0.10;;;0.10;;
44626;SDS011;30333;52.192;8.834;2023-04-06T00:07:52;0.10;;;0.10;;
44626;SDS011;30333;52.192;8.834;2023-04-06T00:10:20;0.10;;;0.10;;
44626;SDS011;30333;52.192;8.834;2023-04-06T00:12:46;0.10;;;0.10;;
44626;SDS011;30333;52.192;8.834;2023-04-06T00:15:12;0.03;;;0.03;;
44626;SDS011;30333;52.192;8.834;2023-04-06T00:17:38;0.10;;;0.10;;
44626;SDS011;30333;52.192;8.834;2023-04-06T00:20:04;0.10;;;0.10;;
44626;SDS011;30333;52.192;8.834;2023-04-06T00:22:31;0.10;;;0.10;;
44626;SDS011;30333;52.192;8.834;2023-04-06T00:24:57;0.10;;;0.10;;
44626;SDS011;30333;52.192;8.834;2023-04-06T00:27:23;0.10;;;0.10;;
44626;SDS011;30333;52.192;8.834;2023-04-06T00:29:49;0.10;;;0.10;;
44626;SDS011;30333;52.192;8.834;2023-04-06T00:32:15;0.10;;;0.10;;
44626;SDS011;30333;52.192;8.834;2023-04-06T00:34:41;0.10;;;0.10;;
44626;SDS011;30333;52.192;8.834;2023-04-06T00:37:07;0.10;;;0.10;;
44626;SDS011;30333;52.192;8.834;2023-04-06T00:39:33;0.10;;;0.10;;
44626;SDS011;30333;52.192;8.834;2023-04-06T00:41:59;0.08;;;0.08;;
44626;SDS011;30333;52.192;8.834;2023-04-06T00:44:25;0.00;;;0.00;;
44626;SDS011;30333;52.192;8.834;2023-04-06T00:46:52;0.10;;;0.10;;
44626;SDS011;30333;52.192;8.834;2023-04-06T00:49:18;0.00;;;0.00;;
44626;SDS011;30333;52.192;8.834;2023-04-06T00:51:44;0.10;;;0.10;;
44626;SDS011;30333;52.192;8.834;2023-04-06T00:54:10;0.10;;;0.10;;
44626;SDS011;30333;52.192;8.834;2023-04-06T00:56:36;0.10;;;0.10;;
44626;SDS011;30333;52.192;8.834;2023-04-06T00:59:02;0.00;;;0.00;;
44626;SDS011;30333;52.192;8.834;2023-04-06T01:01:28;0.10;;;0.10;;
44626;SDS011;30333;52.192;8.834;2023-04-06T01:03:54;0.10;;;0.10;;
44626;SDS011;30333;52.192;8.834;2023-04-06T01:06:20;0.10;;;0.10;;
44626;SDS011;30333;52.192;8.834;2023-04-06T01:08:46;0.10;;;0.10;;
44626;SDS011;30333;52.192;8.834;2023-04-06T01:11:12;0.10;;;0.10;;
44626;SDS011;30333;52.192;8.834;2023-04-06T01:13:38;0.10;;;0.10;;
44626;SDS011;30333;52.192;8.834;2023-04-06T01:16:04;0.10;;;0.10;;
44626;SDS011;30333;52.192;8.834;2023-04-06T01:18:30;0.10;;;0.10;;
44626;SDS011;30333;52.192;8.834;2023-04-06T01:20:56;0.10;;;0.10;;
44626;SDS011;30333;52.192;8.834;2023-04-06T01:23:23;0.10;;;0.10;;
44626;SDS011;30333;52.192;8.834;2023-04-06T01:25:49;0.10;;;0.10;;
44626;SDS011;30333;52.192;8.834;2023-04-06T01:28:15;0.10;;;0.10;;
44626;SDS011;30333;52.192;8.834;2023-04-06T01:30:40;0.10;;;0.10;;
44626;SDS011;30333;52.192;8.834;2023-04-06T01:33:06;0.05;;;0.05;;
44626;SDS011;30333;52.192;8.834;2023-04-06T01:35:32;0.10;;;0.10;;
44626;SDS011;30333;52.192;8.834;2023-04-06T01:37:58;0.10;;;0.10;;
44626;SDS011;30333;52.192;8.834;2023-04-06T01:40:24;0.08;;;0.08;;
44626;SDS011;30333;52.192;8.834;2023-04-06T01:42:50;0.10;;;0.10;;
44626;SDS011;30333;52.192;8.834;2023-04-06T01:45:16;0.10;;;0.10;;
44626;SDS011;30333;52.192;8.834;2023-04-06T01:47:42;0.10;;;0.10;;
44626;SDS011;30333;52.192;8.834;2023-04-06T01:50:08;0.10;;;0.10;;
44626;SDS011;30333;52.192;8.834;2023-04-06T01:52:34;0.10;;;0.10;;
44626;SDS011;30333;52.192;8.834;2023-04-06T01:55:00;0.10;;;0.10;;
44626;SDS011;30333;52.192;8.834;2023-04-06T01:57:26;0.10;;;0.10;;
44626;SDS011;30333;52.192;8.834;2023-04-06T01:59:52;0.10;;;0.10;;
44626;SDS011;30333;52.192;8.834;2023-04-06T02:02:18;0.10;;;0.10;;
44626;SDS011;30333;52.192;8.834;2023-04-06T02:04:44;0.10;;;0.10;;
44626;SDS011;30333;52.192;8.834;2023-04-06T02:07:10;0.10;;;0.10;;
44626;SDS011;30333;52.192;8.834;2023-04-06T02:09:36;0.10;;;0.10;;
44626;SDS011;30333;52.192;8.834;2023-04-06T02:12:02;0.20;;;0.20;;
44626;SDS011;30333;52.192;8.834;2023-04-06T02:14:28;0.10;;;0.10;;
44626;SDS011;30333;52.192;8.834;2023-04-06T02:16:54;0.10;;;0.10;;
44626;SDS011;30333;52.192;8.834;2023-04-06T02:19:20;0.10;;;0.10;;
44626;SDS011;30333;52.192;8.834;2023-04-06T02:21:45;0.10;;;0.10;;
44626;SDS011;30333;52.192;8.834;2023-04-06T02:24:11;0.10;;;0.10;;
44626;SDS011;30333;52.192;8.834;2023-04-06T02:26:37;0.10;;;0.10;;
44626;SDS011;30333;52.192;8.834;2023-04-06T02:29:03;0.10;;;0.10;;
44626;SDS011;30333;52.192;8.834;2023-04-06T02:31:30;0.10;;;0.10;;
44626;SDS011;30333;52.192;8.834;2023-04-06T02:33:56;0.10;;;0.10;;
44626;SDS011;30333;52.192;8.834;2023-04-06T02:36:22;0.10;;;0.10;;
44626;SDS011;30333;52.192;8.834;2023-04-06T02:38:48;0.10;;;0.10;;
44626;SDS011;30333;52.192;8.834;2023-04-06T02:41:14;0.10;;;0.10;;
44626;SDS011;30333;52.192;8.834;2023-04-06T02:43:40;0.10;;;0.10;;
44626;SDS011;30333;52.192;8.834;2023-04-06T02:46:06;0.10;;;0.10;;
44626;SDS011;30333;52.192;8.834;2023-04-06T02:48:32;0.10;;;0.10;;
44626;SDS011;30333;52.192;8.834;2023-04-06T02:51:01;0.00;;;0.00;;
44626;SDS011;30333;52.192;8.834;2023-04-06T02:53:27;0.10;;;0.10;;
44626;SDS011;30333;52.192;8.834;2023-04-06T02:55:52;0.10;;;0.10;;
44626;SDS011;30333;52.192;8.834;2023-04-06T02:58:19;0.10;;;0.10;;
44626;SDS011;30333;52.192;8.834;2023-04-06T03:00:45;0.10;;;0.10;;
44626;SDS011;30333;52.192;8.834;2023-04-06T03:03:10;0.10;;;0.10;;
44626;SDS011;30333;52.192;8.834;2023-04-06T03:05:36;0.00;;;0.00;;
44626;SDS011;30333;52.192;8.834;2023-04-06T03:08:02;0.10;;;0.10;;
44626;SDS011;30333;52.192;8.834;2023-04-06T03:10:28;0.10;;;0.10;;
44626;SDS011;30333;52.192;8.834;2023-04-06T03:12:54;0.00;;;0.00;;
44626;SDS011;30333;52.192;8.834;2023-04-06T03:15:20;0.10;;;0.10;;
44626;SDS011;30333;52.192;8.834;2023-04-06T03:17:46;0.10;;;0.10;;
44626;SDS011;30333;52.192;8.834;2023-04-06T03:20:12;0.10;;;0.10;;
44626;SDS011;30333;52.192;8.834;2023-04-06T03:22:38;0.10;;;0.10;;
44626;SDS011;30333;52.192;8.834;2023-04-06T03:25:04;0.10;;;0.10;;
44626;SDS011;30333;52.192;8.834;2023-04-06T03:27:30;0.10;;;0.10;;
44626;SDS011;30333;52.192;8.834;2023-04-06T03:29:56;0.10;;;0.10;;
44626;SDS011;30333;52.192;8.834;2023-04-06T03:32:22;0.10;;;0.10;;
44626;SDS011;30333;52.192;8.834;2023-04-06T03:34:48;0.10;;;0.10;;
44626;SDS011;30333;52.192;8.834;2023-04-06T04:36:56;0.10;;;0.10;;
44626;SDS011;30333;52.192;8.834;2023-04-06T04:39:22;0.15;;;0.15;;
44626;SDS011;30333;52.192;8.834;2023-04-06T04:41:48;0.10;;;0.10;;
44626;SDS011;30333;52.192;8.834;2023-04-06T04:44:14;0.10;;;0.10;;
44626;SDS011;30333;52.192;8.834;2023-04-06T04:46:40;0.10;;;0.10;;
44626;SDS011;30333;52.192;8.834;2023-04-06T04:49:06;0.10;;;0.10;;
44626;SDS011;30333;52.192;8.834;2023-04-06T04:51:32;0.10;;;0.10;;
44626;SDS011;30333;52.192;8.834;2023-04-06T04:53:58;0.20;;;0.20;;
44626;SDS011;30333;52.192;8.834;2023-04-06T04:56:24;0.10;;;0.10;;
44626;SDS011;30333;52.192;8.834;2023-04-06T04:58:52;0.15;;;0.15;;
44626;SDS011;30333;52.192;8.834;2023-04-06T05:01:18;0.10;;;0.10;;
44626;SDS011;30333;52.192;8.834;2023-04-06T05:03:44;0.10;;;0.10;;
44626;SDS011;30333;52.192;8.834;2023-04-06T05:09:04;0.20;;;0.20;;
44626;SDS011;30333;52.192;8.834;2023-04-06T05:15:11;0.13;;;0.13;;
44626;SDS011;30333;52.192;8.834;2023-04-06T05:17:37;0.20;;;0.20;;
44626;SDS011;30333;52.192;8.834;2023-04-06T05:20:04;0.10;;;0.10;;
44626;SDS011;30333;52.192;8.834;2023-04-06T05:22:30;0.10;;;0.10;;
44626;SDS011;30333;52.192;8.834;2023-04-06T05:24:56;0.10;;;0.10;;
44626;SDS011;30333;52.192;8.834;2023-04-06T05:27:22;0.10;;;0.10;;
44626;SDS011;30333;52.192;8.834;2023-04-06T05:29:48;0.10;;;0.10;;
44626;SDS011;30333;52.192;8.834;2023-04-06T05:32:14;0.10;;;0.10;;
44626;SDS011;30333;52.192;8.834;2023-04-06T05:34:40;0.10;;;0.10;;
44626;SDS011;30333;52.192;8.834;2023-04-06T05:37:05;0.10;;;0.10;;
44626;SDS011;30333;52.192;8.834;2023-04-06T05:39:31;0.10;;;0.10;;
44626;SDS011;30333;52.192;8.834;2023-04-06T05:41:57;0.10;;;0.10;;
44626;SDS011;30333;52.192;8.834;2023-04-06T05:44:23;0.10;;;0.10;;
44626;SDS011;30333;52.192;8.834;2023-04-06T05:46:49;0.10;;;0.10;;
44626;SDS011;30333;52.192;8.834;2023-04-06T05:49:15;0.03;;;0.03;;
44626;SDS011;30333;52.192;8.834;2023-04-06T05:51:41;0.10;;;0.10;;
44626;SDS011;30333;52.192;8.834;2023-04-06T05:54:07;0.10;;;0.10;;
44626;SDS011;30333;52.192;8.834;2023-04-06T05:56:33;0.10;;;0.10;;
44626;SDS011;30333;52.192;8.834;2023-04-06T05:58:59;0.10;;;0.10;;
44626;SDS011;30333;52.192;8.834;2023-04-06T06:01:25;0.00;;;0.00;;
44626;SDS011;30333;52.192;8.834;2023-04-06T06:03:51;0.10;;;0.10;;
44626;SDS011;30333;52.192;8.834;2023-04-06T06:06:17;0.10;;;0.10;;
44626;SDS011;30333;52.192;8.834;2023-04-06T06:08:42;0.10;;;0.10;;
44626;SDS011;30333;52.192;8.834;2023-04-06T06:11:08;0.10;;;0.10;;
44626;SDS011;30333;52.192;8.834;2023-04-06T06:13:34;0.10;;;0.10;;
44626;SDS011;30333;52.192;8.834;2023-04-06T06:16:00;0.10;;;0.10;;
44626;SDS011;30333;52.192;8.834;2023-04-06T06:18:30;0.10;;;0.10;;
44626;SDS011;30333;52.192;8.834;2023-04-06T06:20:57;0.10;;;0.10;;
44626;SDS011;30333;52.192;8.834;2023-04-06T06:23:23;0.10;;;0.10;;
44626;SDS011;30333;52.192;8.834;2023-04-06T06:25:49;0.10;;;0.10;;
44626;SDS011;30333;52.192;8.834;2023-04-06T06:28:15;0.10;;;0.10;;
44626;SDS011;30333;52.192;8.834;2023-04-06T06:30:41;0.10;;;0.10;;
44626;SDS011;30333;52.192;8.834;2023-04-06T06:33:07;0.10;;;0.10;;
44626;SDS011;30333;52.192;8.834;2023-04-06T06:35:33;0.10;;;0.10;;
44626;SDS011;30333;52.192;8.834;2023-04-06T06:37:59;0.10;;;0.10;;
44626;SDS011;30333;52.192;8.834;2023-04-06T06:40:25;0.10;;;0.10;;
44626;SDS011;30333;52.192;8.834;2023-04-06T06:42:51;0.10;;;0.10;;
44626;SDS011;30333;52.192;8.834;2023-04-06T06:45:17;0.10;;;0.10;;
44626;SDS011;30333;52.192;8.834;2023-04-06T06:47:43;0.10;;;0.10;;
44626;SDS011;30333;52.192;8.834;2023-04-06T06:50:09;0.10;;;0.10;;
44626;SDS011;30333;52.192;8.834;2023-04-06T06:52:35;0.10;;;0.10;;
44626;SDS011;30333;52.192;8.834;2023-04-06T06:55:01;0.10;;;0.10;;
44626;SDS011;30333;52.192;8.834;2023-04-06T06:57:27;0.10;;;0.10;;
44626;SDS011;30333;52.192;8.834;2023-04-06T06:59:53;0.10;;;0.10;;
44626;SDS011;30333;52.192;8.834;2023-04-06T07:02:19;0.00;;;0.00;;
44626;SDS011;30333;52.192;8.834;2023-04-06T07:04:48;0.10;;;0.10;;
44626;SDS011;30333;52.192;8.834;2023-04-06T07:07:14;0.10;;;0.10;;
44626;SDS011;30333;52.192;8.834;2023-04-06T07:18:40;0.10;;;0.10;;
44626;SDS011;30333;52.192;8.834;2023-04-06T07:21:29;0.10;;;0.10;;
44626;SDS011;30333;52.192;8.834;2023-04-06T07:23:55;0.10;;;0.10;;
44626;SDS011;30333;52.192;8.834;2023-04-06T07:26:21;0.10;;;0.10;;
44626;SDS011;30333;52.192;8.834;2023-04-06T07:28:47;0.10;;;0.10;;
44626;SDS011;30333;52.192;8.834;2023-04-06T07:31:13;0.10;;;0.10;;
44626;SDS011;30333;52.192;8.834;2023-04-06T07:40:11;0.10;;;0.10;;
44626;SDS011;30333;52.192;8.834;2023-04-06T07:42:56;0.10;;;0.10;;
44626;SDS011;30333;52.192;8.834;2023-04-06T07:45:22;0.10;;;0.10;;
44626;SDS011;30333;52.192;8.834;2023-04-06T07:48:45;0.10;;;0.10;;
44626;SDS011;30333;52.192;8.834;2023-04-06T07:51:37;0.10;;;0.10;;
44626;SDS011;30333;52.192;8.834;2023-04-06T07:54:35;0.10;;;0.10;;
44626;SDS011;30333;52.192;8.834;2023-04-06T09:05:49;0.10;;;0.10;;
44626;SDS011;30333;52.192;8.834;2023-04-06T09:08:16;0.10;;;0.10;;
44626;SDS011;30333;52.192;8.834;2023-04-06T09:10:42;0.10;;;0.10;;
44626;SDS011;30333;52.192;8.834;2023-04-06T09:13:08;0.10;;;0.10;;
44626;SDS011;30333;52.192;8.834;2023-04-06T09:15:34;0.10;;;0.10;;
44626;SDS011;30333;52.192;8.834;2023-04-06T09:20:36;0.10;;;0.10;;
44626;SDS011;30333;52.192;8.834;2023-04-06T09:23:17;0.10;;;0.10;;
44626;SDS011;30333;52.192;8.834;2023-04-06T09:25:43;0.00;;;0.00;;
44626;SDS011;30333;52.192;8.834;2023-04-06T09:28:15;0.10;;;0.10;;
44626;SDS011;30333;52.192;8.834;2023-04-06T09:30:47;0.10;;;0.10;;
44626;SDS011;30333;52.192;8.834;2023-04-06T09:33:28;0.10;;;0.10;;
44626;SDS011;30333;52.192;8.834;2023-04-06T09:35:54;0.10;;;0.10;;
44626;SDS011;30333;52.192;8.834;2023-04-06T09:38:20;0.10;;;0.10;;
44626;SDS011;30333;52.192;8.834;2023-04-06T09:40:52;0.10;;;0.10;;
44626;SDS011;30333;52.192;8.834;2023-04-06T09:43:25;0.10;;;0.10;;
44626;SDS011;30333;52.192;8.834;2023-04-06T09:46:15;0.10;;;0.10;;
44626;SDS011;30333;52.192;8.834;2023-04-06T09:49:02;0.10;;;0.10;;
44626;SDS011;30333;52.192;8.834;2023-04-06T09:51:47;0.10;;;0.10;;
44626;SDS011;30333;52.192;8.834;2023-04-06T09:54:19;0.10;;;0.10;;
44626;SDS011;30333;52.192;8.834;2023-04-06T09:56:49;0.10;;;0.10;;
44626;SDS011;30333;52.192;8.834;2023-04-06T09:59:47;0.10;;;0.10;;
44626;SDS011;30333;52.192;8.834;2023-04-06T10:02:40;0.10;;;0.10;;
44626;SDS011;30333;52.192;8.834;2023-04-06T10:05:15;0.10;;;0.10;;
44626;SDS011;30333;52.192;8.834;2023-04-06T10:07:48;0.10;;;0.10;;
44626;SDS011;30333;52.192;8.834;2023-04-06T10:10:16;0.10;;;0.10;;
44626;SDS011;30333;52.192;8.834;2023-04-06T10:12:41;0.10;;;0.10;;
44626;SDS011;30333;52.192;8.834;2023-04-06T10:15:09;0.10;;;0.10;;
44626;SDS011;30333;52.192;8.834;2023-04-06T10:17:35;0.10;;;0.10;;
44626;SDS011;30333;52.192;8.834;2023-04-06T10:20:06;0.10;;;0.10;;
44626;SDS011;30333;52.192;8.834;2023-04-06T10:25:08;0.10;;;0.10;;
44626;SDS011;30333;52.192;8.834;2023-04-06T10:27:34;0.10;;;0.10;;
44626;SDS011;30333;52.192;8.834;2023-04-06T10:30:04;0.10;;;0.10;;
44626;SDS011;30333;52.192;8.834;2023-04-06T10:32:32;0.10;;;0.10;;
44626;SDS011;30333;52.192;8.834;2023-04-06T10:35:07;0.08;;;0.08;;
44626;SDS011;30333;52.192;8.834;2023-04-06T10:37:46;0.10;;;0.10;;
44626;SDS011;30333;52.192;8.834;2023-04-06T10:40:18;0.10;;;0.10;;
44626;SDS011;30333;52.192;8.834;2023-04-06T10:42:44;0.10;;;0.10;;
44626;SDS011;30333;52.192;8.834;2023-04-06T10:45:18;0.10;;;0.10;;
44626;SDS011;30333;52.192;8.834;2023-04-06T10:47:48;0.10;;;0.10;;
44626;SDS011;30333;52.192;8.834;2023-04-06T10:50:14;0.10;;;0.10;;
44626;SDS011;30333;52.192;8.834;2023-04-06T10:52:44;0.10;;;0.10;;
44626;SDS011;30333;52.192;8.834;2023-04-06T10:55:10;0.10;;;0.10;;
44626;SDS011;30333;52.192;8.834;2023-04-06T10:57:38;0.10;;;0.10;;
44626;SDS011;30333;52.192;8.834;2023-04-06T11:00:04;0.10;;;0.10;;
44626;SDS011;30333;52.192;8.834;2023-04-06T11:02:30;0.00;;;0.00;;
44626;SDS011;30333;52.192;8.834;2023-04-06T11:04:57;0.00;;;0.00;;
44626;SDS011;30333;52.192;8.834;2023-04-06T11:07:24;0.00;;;0.00;;
44626;SDS011;30333;52.192;8.834;2023-04-06T11:09:50;0.10;;;0.10;;
44626;SDS011;30333;52.192;8.834;2023-04-06T11:12:26;0.10;;;0.10;;
44626;SDS011;30333;52.192;8.834;2023-04-06T11:14:56;0.10;;;0.10;;
44626;SDS011;30333;52.192;8.834;2023-04-06T11:17:28;0.00;;;0.00;;
44626;SDS011;30333;52.192;8.834;2023-04-06T11:19:55;0.00;;;0.00;;
44626;SDS011;30333;52.192;8.834;2023-04-06T11:22:21;0.00;;;0.00;;
44626;SDS011;30333;52.192;8.834;2023-04-06T11:24:47;0.00;;;0.00;;
44626;SDS011;30333;52.192;8.834;2023-04-06T11:27:14;0.00;;;0.00;;
44626;SDS011;30333;52.192;8.834;2023-04-06T11:29:41;0.00;;;0.00;;
44626;SDS011;30333;52.192;8.834;2023-04-06T11:32:07;0.00;;;0.00;;
44626;SDS011;30333;52.192;8.834;2023-04-06T11:34:37;0.00;;;0.00;;
44626;SDS011;30333;52.192;8.834;2023-04-06T11:37:08;0.00;;;0.00;;
44626;SDS011;30333;52.192;8.834;2023-04-06T11:39:38;0.00;;;0.00;;
44626;SDS011;30333;52.192;8.834;2023-04-06T11:42:11;0.00;;;0.00;;
44626;SDS011;30333;52.192;8.834;2023-04-06T11:44:42;0.00;;;0.00;;
44626;SDS011;30333;52.192;8.834;2023-04-06T11:47:11;0.00;;;0.00;;
44626;SDS011;30333;52.192;8.834;2023-04-06T11:49:37;0.00;;;0.00;;
44626;SDS011;30333;52.192;8.834;2023-04-06T11:52:40;0.00;;;0.00;;
44626;SDS011;30333;52.192;8.834;2023-04-06T11:55:09;0.00;;;0.00;;
44626;SDS011;30333;52.192;8.834;2023-04-06T11:57:36;0.03;;;0.03;;
44626;SDS011;30333;52.192;8.834;2023-04-06T12:00:02;0.00;;;0.00;;
44626;SDS011;30333;52.192;8.834;2023-04-06T12:02:29;0.00;;;0.00;;
44626;SDS011;30333;52.192;8.834;2023-04-06T12:04:57;0.08;;;0.08;;
44626;SDS011;30333;52.192;8.834;2023-04-06T12:07:23;0.00;;;0.00;;
44626;SDS011;30333;52.192;8.834;2023-04-06T12:09:48;0.00;;;0.00;;
44626;SDS011;30333;52.192;8.834;2023-04-06T12:12:14;0.00;;;0.00;;
44626;SDS011;30333;52.192;8.834;2023-04-06T12:14:41;0.00;;;0.00;;
44626;SDS011;30333;52.192;8.834;2023-04-06T12:17:07;0.00;;;0.00;;
44626;SDS011;30333;52.192;8.834;2023-04-06T12:19:33;0.00;;;0.00;;
44626;SDS011;30333;52.192;8.834;2023-04-06T12:21:58;0.00;;;0.00;;
44626;SDS011;30333;52.192;8.834;2023-04-06T12:24:24;0.00;;;0.00;;
44626;SDS011;30333;52.192;8.834;2023-04-06T12:26:50;0.00;;;0.00;;
44626;SDS011;30333;52.192;8.834;2023-04-06T12:29:16;0.00;;;0.00;;
44626;SDS011;30333;52.192;8.834;2023-04-06T12:31:42;0.00;;;0.00;;
44626;SDS011;30333;52.192;8.834;2023-04-06T12:34:09;0.00;;;0.00;;
44626;SDS011;30333;52.192;8.834;2023-04-06T12:36:36;0.00;;;0.00;;
44626;SDS011;30333;52.192;8.834;2023-04-06T12:39:02;0.00;;;0.00;;
44626;SDS011;30333;52.192;8.834;2023-04-06T12:41:28;0.00;;;0.00;;
44626;SDS011;30333;52.192;8.834;2023-04-06T12:43:54;0.00;;;0.00;;
44626;SDS011;30333;52.192;8.834;2023-04-06T12:46:20;0.00;;;0.00;;
44626;SDS011;30333;52.192;8.834;2023-04-06T12:48:46;0.00;;;0.00;;
44626;SDS011;30333;52.192;8.834;2023-04-06T12:51:12;0.00;;;0.00;;
44626;SDS011;30333;52.192;8.834;2023-04-06T12:53:38;0.00;;;0.00;;
44626;SDS011;30333;52.192;8.834;2023-04-06T12:56:12;0.00;;;0.00;;
44626;SDS011;30333;52.192;8.834;2023-04-06T12:58:38;0.00;;;0.00;;
44626;SDS011;30333;52.192;8.834;2023-04-06T13:01:06;0.00;;;0.00;;
44626;SDS011;30333;52.192;8.834;2023-04-06T13:03:32;0.00;;;0.00;;
44626;SDS011;30333;52.192;8.834;2023-04-06T13:05:59;0.00;;;0.00;;
44626;SDS011;30333;52.192;8.834;2023-04-06T13:08:25;0.00;;;0.00;;
44626;SDS011;30333;52.192;8.834;2023-04-06T13:10:52;0.00;;;0.00;;
44626;SDS011;30333;52.192;8.834;2023-04-06T13:13:25;0.00;;;0.00;;
44626;SDS011;30333;52.192;8.834;2023-04-06T13:15:52;0.00;;;0.00;;
44626;SDS011;30333;52.192;8.834;2023-04-06T13:18:18;0.00;;;0.00;;
44626;SDS011;30333;52.192;8.834;2023-04-06T13:20:46;0.00;;;0.00;;
44626;SDS011;30333;52.192;8.834;2023-04-06T13:23:12;0.00;;;0.00;;
44626;SDS011;30333;52.192;8.834;2023-04-06T13:25:38;0.00;;;0.00;;
44626;SDS011;30333;52.192;8.834;2023-04-06T13:28:04;0.00;;;0.00;;
44626;SDS011;30333;52.192;8.834;2023-04-06T13:30:30;0.00;;;0.00;;
44626;SDS011;30333;52.192;8.834;2023-04-06T13:32:56;0.00;;;0.00;;
44626;SDS011;30333;52.192;8.834;2023-04-06T13:35:22;0.00;;;0.00;;
44626;SDS011;30333;52.192;8.834;2023-04-06T13:37:48;0.00;;;0.00;;
44626;SDS011;30333;52.192;8.834;2023-04-06T13:40:17;0.00;;;0.00;;
44626;SDS011;30333;52.192;8.834;2023-04-06T13:42:43;0.00;;;0.00;;
44626;SDS011;30333;52.192;8.834;2023-04-06T13:45:10;0.00;;;0.00;;
44626;SDS011;30333;52.192;8.834;2023-04-06T13:47:36;0.00;;;0.00;;
44626;SDS011;30333;52.192;8.834;2023-04-06T13:50:02;0.00;;;0.00;;
44626;SDS011;30333;52.192;8.834;2023-04-06T13:52:29;0.00;;;0.00;;
44626;SDS011;30333;52.192;8.834;2023-04-06T13:54:54;0.00;;;0.00;;
44626;SDS011;30333;52.192;8.834;2023-04-06T13:57:20;0.00;;;0.00;;
44626;SDS011;30333;52.192;8.834;2023-04-06T13:59:46;0.00;;;0.00;;
44626;SDS011;30333;52.192;8.834;2023-04-06T14:02:14;0.00;;;0.00;;
44626;SDS011;30333;52.192;8.834;2023-04-06T14:04:40;0.00;;;0.00;;
44626;SDS011;30333;52.192;8.834;2023-04-06T14:07:06;0.00;;;0.00;;
44626;SDS011;30333;52.192;8.834;2023-04-06T14:09:32;0.00;;;0.00;;
44626;SDS011;30333;52.192;8.834;2023-04-06T14:11:58;0.00;;;0.00;;
44626;SDS011;30333;52.192;8.834;2023-04-06T14:14:24;0.00;;;0.00;;
44626;SDS011;30333;52.192;8.834;2023-04-06T14:16:51;0.00;;;0.00;;
44626;SDS011;30333;52.192;8.834;2023-04-06T14:19:17;0.00;;;0.00;;
44626;SDS011;30333;52.192;8.834;2023-04-06T14:21:43;0.10;;;0.10;;
44626;SDS011;30333;52.192;8.834;2023-04-06T14:24:09;0.00;;;0.00;;
44626;SDS011;30333;52.192;8.834;2023-04-06T14:26:35;0.00;;;0.00;;
44626;SDS011;30333;52.192;8.834;2023-04-06T14:29:02;0.00;;;0.00;;
44626;SDS011;30333;52.192;8.834;2023-04-06T14:31:29;0.00;;;0.00;;
44626;SDS011;30333;52.192;8.834;2023-04-06T14:33:55;0.00;;;0.00;;
44626;SDS011;30333;52.192;8.834;2023-04-06T14:36:21;0.00;;;0.00;;
44626;SDS011;30333;52.192;8.834;2023-04-06T14:38:47;0.00;;;0.00;;
44626;SDS011;30333;52.192;8.834;2023-04-06T14:41:21;0.00;;;0.00;;
44626;SDS011;30333;52.192;8.834;2023-04-06T14:43:48;0.00;;;0.00;;
44626;SDS011;30333;52.192;8.834;2023-04-06T14:46:14;0.05;;;0.05;;
44626;SDS011;30333;52.192;8.834;2023-04-06T14:48:43;0.00;;;0.00;;
44626;SDS011;30333;52.192;8.834;2023-04-06T14:51:10;0.00;;;0.00;;
44626;SDS011;30333;52.192;8.834;2023-04-06T14:53:36;0.00;;;0.00;;
44626;SDS011;30333;52.192;8.834;2023-04-06T14:56:02;0.00;;;0.00;;
44626;SDS011;30333;52.192;8.834;2023-04-06T14:58:28;0.00;;;0.00;;
44626;SDS011;30333;52.192;8.834;2023-04-06T15:00:58;0.00;;;0.00;;
44626;SDS011;30333;52.192;8.834;2023-04-06T15:03:25;0.00;;;0.00;;
44626;SDS011;30333;52.192;8.834;2023-04-06T15:05:54;0.00;;;0.00;;
44626;SDS011;30333;52.192;8.834;2023-04-06T15:08:21;0.00;;;0.00;;
44626;SDS011;30333;52.192;8.834;2023-04-06T15:10:47;0.00;;;0.00;;
44626;SDS011;30333;52.192;8.834;2023-04-06T15:13:13;0.00;;;0.00;;
44626;SDS011;30333;52.192;8.834;2023-04-06T15:15:43;0.00;;;0.00;;
44626;SDS011;30333;52.192;8.834;2023-04-06T15:18:09;0.00;;;0.00;;
44626;SDS011;30333;52.192;8.834;2023-04-06T15:20:35;0.00;;;0.00;;
44626;SDS011;30333;52.192;8.834;2023-04-06T15:23:02;0.00;;;0.00;;
44626;SDS011;30333;52.192;8.834;2023-04-06T15:25:28;0.00;;;0.00;;
44626;SDS011;30333;52.192;8.834;2023-04-06T15:27:54;0.00;;;0.00;;
44626;SDS011;30333;52.192;8.834;2023-04-06T15:30:20;0.00;;;0.00;;
44626;SDS011;30333;52.192;8.834;2023-04-06T15:32:53;0.00;;;0.00;;
44626;SDS011;30333;52.192;8.834;2023-04-06T15:35:21;0.00;;;0.00;;
44626;SDS011;30333;52.192;8.834;2023-04-06T15:37:47;0.00;;;0.00;;
44626;SDS011;30333;52.192;8.834;2023-04-06T15:40:13;0.00;;;0.00;;
44626;SDS011;30333;52.192;8.834;2023-04-06T15:42:40;0.00;;;0.00;;
44626;SDS011;30333;52.192;8.834;2023-04-06T15:45:08;0.00;;;0.00;;
44626;SDS011;30333;52.192;8.834;2023-04-06T15:47:34;0.00;;;0.00;;
44626;SDS011;30333;52.192;8.834;2023-04-06T15:50:00;0.00;;;0.00;;
44626;SDS011;30333;52.192;8.834;2023-04-06T15:52:26;0.00;;;0.00;;
44626;SDS011;30333;52.192;8.834;2023-04-06T15:54:51;0.00;;;0.00;;
44626;SDS011;30333;52.192;8.834;2023-04-06T15:57:17;0.00;;;0.00;;
44626;SDS011;30333;52.192;8.834;2023-04-06T15:59:43;0.10;;;0.10;;
44626;SDS011;30333;52.192;8.834;2023-04-06T16:02:09;0.10;;;0.10;;
44626;SDS011;30333;52.192;8.834;2023-04-06T16:04:35;0.00;;;0.00;;
44626;SDS011;30333;52.192;8.834;2023-04-06T16:07:01;0.00;;;0.00;;
44626;SDS011;30333;52.192;8.834;2023-04-06T16:09:27;0.00;;;0.00;;
44626;SDS011;30333;52.192;8.834;2023-04-06T16:11:53;0.00;;;0.00;;
44626;SDS011;30333;52.192;8.834;2023-04-06T16:14:20;0.00;;;0.00;;
44626;SDS011;30333;52.192;8.834;2023-04-06T16:16:46;0.00;;;0.00;;
44626;SDS011;30333;52.192;8.834;2023-04-06T16:19:13;0.00;;;0.00;;
44626;SDS011;30333;52.192;8.834;2023-04-06T16:21:40;0.00;;;0.00;;
44626;SDS011;30333;52.192;8.834;2023-04-06T16:24:06;0.00;;;0.00;;
44626;SDS011;30333;52.192;8.834;2023-04-06T16:26:32;0.00;;;0.00;;
44626;SDS011;30333;52.192;8.834;2023-04-06T16:28:58;0.10;;;0.10;;
44626;SDS011;30333;52.192;8.834;2023-04-06T16:31:24;0.00;;;0.00;;
44626;SDS011;30333;52.192;8.834;2023-04-06T16:33:54;0.00;;;0.00;;
44626;SDS011;30333;52.192;8.834;2023-04-06T16:36:24;0.00;;;0.00;;
44626;SDS011;30333;52.192;8.834;2023-04-06T16:38:52;0.00;;;0.00;;
44626;SDS011;30333;52.192;8.834;2023-04-06T16:41:18;0.00;;;0.00;;
44626;SDS011;30333;52.192;8.834;2023-04-06T16:43:44;0.00;;;0.00;;
44626;SDS011;30333;52.192;8.834;2023-04-06T16:46:10;0.00;;;0.00;;
44626;SDS011;30333;52.192;8.834;2023-04-06T16:48:36;0.00;;;0.00;;
44626;SDS011;30333;52.192;8.834;2023-04-06T16:51:03;0.00;;;0.00;;
44626;SDS011;30333;52.192;8.834;2023-04-06T16:53:36;0.00;;;0.00;;
44626;SDS011;30333;52.192;8.834;2023-04-06T16:56:02;0.00;;;0.00;;
44626;SDS011;30333;52.192;8.834;2023-04-06T16:58:30;0.00;;;0.00;;
44626;SDS011;30333;52.192;8.834;2023-04-06T17:00:58;0.00;;;0.00;;
44626;SDS011;30333;52.192;8.834;2023-04-06T17:03:25;0.00;;;0.00;;
44626;SDS011;30333;52.192;8.834;2023-04-06T17:05:51;0.00;;;0.00;;
44626;SDS011;30333;52.192;8.834;2023-04-06T17:08:17;0.00;;;0.00;;
44626;SDS011;30333;52.192;8.834;2023-04-06T17:10:43;0.00;;;0.00;;
44626;SDS011;30333;52.192;8.834;2023-04-06T17:13:09;0.00;;;0.00;;
44626;SDS011;30333;52.192;8.834;2023-04-06T17:15:35;0.00;;;0.00;;
44626;SDS011;30333;52.192;8.834;2023-04-06T17:18:01;0.00;;;0.00;;
44626;SDS011;30333;52.192;8.834;2023-04-06T17:20:27;0.00;;;0.00;;
44626;SDS011;30333;52.192;8.834;2023-04-06T17:22:53;0.00;;;0.00;;
44626;SDS011;30333;52.192;8.834;2023-04-06T17:25:19;0.00;;;0.00;;